sensor_id;sensor_type;location;lat;lon;timestamp;P1;durP1;ratioP1;P2;durP2;ratioP2
52620;SDS011;38515;53.160;6.990;2023-07-22T00:02:03;177.68;;;169.70;;
52620;SDS011;38515;53.160;6.990;2023-07-22T00:04:30;279.15;;;266.60;;
52620;SDS011;38515;53.160;6.990;2023-07-22T00:06:55;219.18;;;209.43;;
52620;SDS011;38515;53.160;6.990;2023-07-22T00:09:21;175.90;;;167.88;;
52620;SDS011;38515;53.160;6.990;2023-07-22T00:11:49;201.52;;;192.57;;
52620;SDS011;38515;53.160;6.990;2023-07-22T00:14:15;155.18;;;148.35;;
52620;SDS011;38515;53.160;6.990;2023-07-22T00:16:41;133.35;;;127.30;;
52620;SDS011;38515;53.160;6.990;2023-07-22T00:19:07;99.63;;;94.72;;
52620;SDS011;38515;53.160;6.990;2023-07-22T00:21:32;116.93;;;111.22;;
52620;SDS011;38515;53.160;6.990;2023-07-22T00:24:01;101.80;;;96.78;;
52620;SDS011;38515;53.160;6.990;2023-07-22T00:26:27;88.10;;;83.55;;
52620;SDS011;38515;53.160;6.990;2023-07-22T00:28:53;101.57;;;96.75;;
52620;SDS011;38515;53.160;6.990;2023-07-22T00:31:19;166.48;;;159.07;;
52620;SDS011;38515;53.160;6.990;2023-07-22T00:33:45;146.15;;;139.63;;
52620;SDS011;38515;53.160;6.990;2023-07-22T00:36:10;117.93;;;112.38;;
52620;SDS011;38515;53.160;6.990;2023-07-22T00:38:36;99.70;;;94.95;;
52620;SDS011;38515;53.160;6.990;2023-07-22T00:41:02;88.32;;;83.45;;
52620;SDS011;38515;53.160;6.990;2023-07-22T00:43:31;108.63;;;103.38;;
52620;SDS011;38515;53.160;6.990;2023-07-22T00:45:57;124.80;;;119.20;;
52620;SDS011;38515;53.160;6.990;2023-07-22T00:48:22;97.07;;;92.22;;
52620;SDS011;38515;53.160;6.990;2023-07-22T00:50:49;106.75;;;101.47;;
52620;SDS011;38515;53.160;6.990;2023-07-22T00:53:15;95.15;;;90.72;;
52620;SDS011;38515;53.160;6.990;2023-07-22T00:55:41;123.35;;;117.50;;
52620;SDS011;38515;53.160;6.990;2023-07-22T00:58:07;96.88;;;92.20;;
52620;SDS011;38515;53.160;6.990;2023-07-22T01:00:33;102.45;;;97.55;;
52620;SDS011;38515;53.160;6.990;2023-07-22T01:02:59;146.95;;;140.25;;
52620;SDS011;38515;53.160;6.990;2023-07-22T01:05:26;142.75;;;136.32;;
52620;SDS011;38515;53.160;6.990;2023-07-22T01:07:53;116.35;;;110.55;;
52620;SDS011;38515;53.160;6.990;2023-07-22T01:10:21;123.45;;;117.72;;
52620;SDS011;38515;53.160;6.990;2023-07-22T01:12:47;104.72;;;99.13;;
52620;SDS011;38515;53.160;6.990;2023-07-22T01:15:13;123.40;;;117.88;;
52620;SDS011;38515;53.160;6.990;2023-07-22T01:17:39;148.43;;;141.98;;
52620;SDS011;38515;53.160;6.990;2023-07-22T01:20:05;106.25;;;101.15;;
52620;SDS011;38515;53.160;6.990;2023-07-22T01:22:33;167.25;;;160.10;;
52620;SDS011;38515;53.160;6.990;2023-07-22T01:24:59;110.68;;;105.25;;
52620;SDS011;38515;53.160;6.990;2023-07-22T01:27:26;149.73;;;143.25;;
52620;SDS011;38515;53.160;6.990;2023-07-22T01:29:52;154.43;;;148.05;;
52620;SDS011;38515;53.160;6.990;2023-07-22T01:32:18;102.82;;;97.97;;
52620;SDS011;38515;53.160;6.990;2023-07-22T01:34:45;129.00;;;123.07;;
52620;SDS011;38515;53.160;6.990;2023-07-22T01:37:11;127.63;;;122.07;;
52620;SDS011;38515;53.160;6.990;2023-07-22T01:39:37;177.30;;;169.82;;
52620;SDS011;38515;53.160;6.990;2023-07-22T01:42:03;147.60;;;141.15;;
52620;SDS011;38515;53.160;6.990;2023-07-22T01:44:29;129.07;;;123.40;;
52620;SDS011;38515;53.160;6.990;2023-07-22T01:46:55;147.88;;;141.48;;
52620;SDS011;38515;53.160;6.990;2023-07-22T01:49:21;120.13;;;114.88;;
52620;SDS011;38515;53.160;6.990;2023-07-22T01:51:49;131.88;;;126.20;;
52620;SDS011;38515;53.160;6.990;2023-07-22T01:54:15;100.75;;;95.90;;
52620;SDS011;38515;53.160;6.990;2023-07-22T01:56:42;123.90;;;118.35;;
52620;SDS011;38515;53.160;6.990;2023-07-22T01:59:07;95.80;;;91.55;;
52620;SDS011;38515;53.160;6.990;2023-07-22T02:01:34;110.53;;;105.75;;
52620;SDS011;38515;53.160;6.990;2023-07-22T02:04:00;117.93;;;112.78;;
52620;SDS011;38515;53.160;6.990;2023-07-22T02:06:26;180.23;;;172.32;;
52620;SDS011;38515;53.160;6.990;2023-07-22T02:08:54;200.15;;;191.27;;
52620;SDS011;38515;53.160;6.990;2023-07-22T02:11:21;145.80;;;139.52;;
52620;SDS011;38515;53.160;6.990;2023-07-22T02:13:47;156.50;;;149.52;;
52620;SDS011;38515;53.160;6.990;2023-07-22T02:16:12;105.65;;;100.70;;
52620;SDS011;38515;53.160;6.990;2023-07-22T02:18:38;187.88;;;179.55;;
52620;SDS011;38515;53.160;6.990;2023-07-22T02:21:04;159.00;;;152.10;;
52620;SDS011;38515;53.160;6.990;2023-07-22T02:23:30;171.93;;;164.40;;
52620;SDS011;38515;53.160;6.990;2023-07-22T02:25:56;135.05;;;129.10;;
52620;SDS011;38515;53.160;6.990;2023-07-22T02:28:22;108.75;;;103.50;;
52620;SDS011;38515;53.160;6.990;2023-07-22T02:30:49;109.20;;;103.97;;
52620;SDS011;38515;53.160;6.990;2023-07-22T02:33:17;170.40;;;162.82;;
52620;SDS011;38515;53.160;6.990;2023-07-22T02:35:44;95.03;;;90.43;;
52620;SDS011;38515;53.160;6.990;2023-07-22T02:38:10;93.70;;;88.97;;
52620;SDS011;38515;53.160;6.990;2023-07-22T02:40:36;153.02;;;146.32;;
52620;SDS011;38515;53.160;6.990;2023-07-22T02:43:02;185.60;;;177.75;;
52620;SDS011;38515;53.160;6.990;2023-07-22T02:45:29;197.38;;;189.27;;
52620;SDS011;38515;53.160;6.990;2023-07-22T02:47:55;241.48;;;231.32;;
52620;SDS011;38515;53.160;6.990;2023-07-22T02:50:21;224.60;;;214.98;;
52620;SDS011;38515;53.160;6.990;2023-07-22T02:52:46;177.73;;;170.15;;
52620;SDS011;38515;53.160;6.990;2023-07-22T02:55:16;204.65;;;196.35;;
52620;SDS011;38515;53.160;6.990;2023-07-22T02:57:45;172.98;;;165.63;;
52620;SDS011;38515;53.160;6.990;2023-07-22T03:00:12;174.93;;;167.02;;
52620;SDS011;38515;53.160;6.990;2023-07-22T03:02:52;195.38;;;187.20;;
52620;SDS011;38515;53.160;6.990;2023-07-22T03:05:21;209.50;;;200.23;;
52620;SDS011;38515;53.160;6.990;2023-07-22T03:07:46;221.27;;;211.98;;
52620;SDS011;38515;53.160;6.990;2023-07-22T03:10:12;231.90;;;222.48;;
52620;SDS011;38515;53.160;6.990;2023-07-22T03:12:38;174.65;;;166.50;;
52620;SDS011;38515;53.160;6.990;2023-07-22T03:15:04;161.75;;;154.93;;
52620;SDS011;38515;53.160;6.990;2023-07-22T03:17:33;190.10;;;181.95;;
52620;SDS011;38515;53.160;6.990;2023-07-22T03:20:01;199.00;;;190.75;;
52620;SDS011;38515;53.160;6.990;2023-07-22T03:22:30;200.90;;;192.35;;
52620;SDS011;38515;53.160;6.990;2023-07-22T03:24:56;184.75;;;176.77;;
52620;SDS011;38515;53.160;6.990;2023-07-22T03:27:22;117.05;;;111.63;;
52620;SDS011;38515;53.160;6.990;2023-07-22T03:29:48;100.18;;;95.50;;
52620;SDS011;38515;53.160;6.990;2023-07-22T03:32:14;85.65;;;81.68;;
52620;SDS011;38515;53.160;6.990;2023-07-22T03:34:39;209.13;;;200.35;;
52620;SDS011;38515;53.160;6.990;2023-07-22T03:37:06;187.82;;;179.95;;
52620;SDS011;38515;53.160;6.990;2023-07-22T03:39:32;153.68;;;146.93;;
52620;SDS011;38515;53.160;6.990;2023-07-22T03:41:58;114.25;;;108.63;;
52620;SDS011;38515;53.160;6.990;2023-07-22T03:44:24;192.65;;;184.15;;
52620;SDS011;38515;53.160;6.990;2023-07-22T03:46:51;184.93;;;177.25;;
52620;SDS011;38515;53.160;6.990;2023-07-22T03:49:17;151.05;;;144.10;;
52620;SDS011;38515;53.160;6.990;2023-07-22T03:51:43;97.53;;;92.82;;
52620;SDS011;38515;53.160;6.990;2023-07-22T03:54:09;89.30;;;84.65;;
52620;SDS011;38515;53.160;6.990;2023-07-22T03:56:34;111.25;;;105.65;;
52620;SDS011;38515;53.160;6.990;2023-07-22T03:59:00;84.20;;;79.80;;
52620;SDS011;38515;53.160;6.990;2023-07-22T04:01:26;88.78;;;83.97;;
52620;SDS011;38515;53.160;6.990;2023-07-22T04:03:52;162.27;;;155.30;;
52620;SDS011;38515;53.160;6.990;2023-07-22T04:06:18;163.10;;;155.80;;
52620;SDS011;38515;53.160;6.990;2023-07-22T04:08:44;115.28;;;110.03;;
52620;SDS011;38515;53.160;6.990;2023-07-22T04:11:10;112.35;;;107.32;;
52620;SDS011;38515;53.160;6.990;2023-07-22T04:13:36;155.02;;;147.73;;
52620;SDS011;38515;53.160;6.990;2023-07-22T04:16:02;147.32;;;141.00;;
52620;SDS011;38515;53.160;6.990;2023-07-22T04:18:28;100.32;;;95.43;;
52620;SDS011;38515;53.160;6.990;2023-07-22T04:20:59;158.23;;;151.20;;
52620;SDS011;38515;53.160;6.990;2023-07-22T04:23:25;134.30;;;128.30;;
52620;SDS011;38515;53.160;6.990;2023-07-22T04:25:52;212.80;;;203.48;;
52620;SDS011;38515;53.160;6.990;2023-07-22T04:28:18;185.75;;;177.27;;
52620;SDS011;38515;53.160;6.990;2023-07-22T04:30:53;175.10;;;167.13;;
52620;SDS011;38515;53.160;6.990;2023-07-22T04:33:20;229.65;;;219.25;;
52620;SDS011;38515;53.160;6.990;2023-07-22T04:35:46;167.35;;;159.68;;
52620;SDS011;38515;53.160;6.990;2023-07-22T04:38:12;102.07;;;96.55;;
52620;SDS011;38515;53.160;6.990;2023-07-22T04:40:42;172.00;;;164.38;;
52620;SDS011;38515;53.160;6.990;2023-07-22T04:43:08;162.82;;;154.77;;
52620;SDS011;38515;53.160;6.990;2023-07-22T04:45:34;136.75;;;130.15;;
52620;SDS011;38515;53.160;6.990;2023-07-22T04:48:01;88.07;;;83.57;;
52620;SDS011;38515;53.160;6.990;2023-07-22T04:50:27;104.40;;;98.85;;
52620;SDS011;38515;53.160;6.990;2023-07-22T04:52:53;122.65;;;116.75;;
52620;SDS011;38515;53.160;6.990;2023-07-22T04:55:20;101.72;;;96.40;;
52620;SDS011;38515;53.160;6.990;2023-07-22T04:57:46;87.22;;;82.70;;
52620;SDS011;38515;53.160;6.990;2023-07-22T05:00:12;88.00;;;83.38;;
52620;SDS011;38515;53.160;6.990;2023-07-22T05:02:40;84.72;;;80.28;;
52620;SDS011;38515;53.160;6.990;2023-07-22T05:05:06;139.73;;;133.20;;
52620;SDS011;38515;53.160;6.990;2023-07-22T05:07:32;86.80;;;82.10;;
52620;SDS011;38515;53.160;6.990;2023-07-22T05:09:58;107.13;;;101.72;;
52620;SDS011;38515;53.160;6.990;2023-07-22T05:12:24;94.57;;;89.70;;
52620;SDS011;38515;53.160;6.990;2023-07-22T05:14:50;84.38;;;79.97;;
52620;SDS011;38515;53.160;6.990;2023-07-22T05:17:16;162.73;;;155.13;;
52620;SDS011;38515;53.160;6.990;2023-07-22T05:19:42;96.63;;;91.72;;
52620;SDS011;38515;53.160;6.990;2023-07-22T05:22:08;116.63;;;111.13;;
52620;SDS011;38515;53.160;6.990;2023-07-22T05:24:33;130.77;;;124.80;;
52620;SDS011;38515;53.160;6.990;2023-07-22T05:26:59;141.18;;;133.82;;
52620;SDS011;38515;53.160;6.990;2023-07-22T05:29:25;114.45;;;108.95;;
52620;SDS011;38515;53.160;6.990;2023-07-22T05:31:51;102.55;;;97.75;;
52620;SDS011;38515;53.160;6.990;2023-07-22T05:34:17;87.50;;;82.93;;
52620;SDS011;38515;53.160;6.990;2023-07-22T05:36:42;97.18;;;92.32;;
52620;SDS011;38515;53.160;6.990;2023-07-22T05:39:08;108.35;;;103.15;;
52620;SDS011;38515;53.160;6.990;2023-07-22T05:41:34;131.15;;;125.00;;
52620;SDS011;38515;53.160;6.990;2023-07-22T05:44:01;139.00;;;132.48;;
52620;SDS011;38515;53.160;6.990;2023-07-22T05:46:26;146.65;;;139.45;;
52620;SDS011;38515;53.160;6.990;2023-07-22T05:48:52;114.88;;;108.95;;
52620;SDS011;38515;53.160;6.990;2023-07-22T05:51:18;118.63;;;112.97;;
52620;SDS011;38515;53.160;6.990;2023-07-22T05:53:44;142.38;;;135.98;;
52620;SDS011;38515;53.160;6.990;2023-07-22T05:56:10;127.93;;;121.78;;
52620;SDS011;38515;53.160;6.990;2023-07-22T05:58:36;137.02;;;130.38;;
52620;SDS011;38515;53.160;6.990;2023-07-22T06:01:02;143.10;;;136.15;;
52620;SDS011;38515;53.160;6.990;2023-07-22T06:03:27;151.18;;;143.95;;
52620;SDS011;38515;53.160;6.990;2023-07-22T06:05:53;136.95;;;130.65;;
52620;SDS011;38515;53.160;6.990;2023-07-22T06:08:19;204.80;;;195.75;;
52620;SDS011;38515;53.160;6.990;2023-07-22T06:10:45;207.13;;;197.77;;
52620;SDS011;38515;53.160;6.990;2023-07-22T06:13:11;260.88;;;249.05;;
52620;SDS011;38515;53.160;6.990;2023-07-22T06:15:37;250.65;;;239.50;;
52620;SDS011;38515;53.160;6.990;2023-07-22T06:18:03;174.38;;;166.27;;
52620;SDS011;38515;53.160;6.990;2023-07-22T06:20:34;185.40;;;176.52;;
52620;SDS011;38515;53.160;6.990;2023-07-22T06:23:01;271.67;;;259.08;;
52620;SDS011;38515;53.160;6.990;2023-07-22T06:25:29;266.48;;;253.65;;
52620;SDS011;38515;53.160;6.990;2023-07-22T06:27:55;269.88;;;257.45;;
52620;SDS011;38515;53.160;6.990;2023-07-22T06:30:21;260.20;;;248.07;;
52620;SDS011;38515;53.160;6.990;2023-07-22T06:32:47;247.50;;;236.50;;
52620;SDS011;38515;53.160;6.990;2023-07-22T06:35:13;187.10;;;178.45;;
52620;SDS011;38515;53.160;6.990;2023-07-22T06:37:39;302.58;;;288.58;;
52620;SDS011;38515;53.160;6.990;2023-07-22T06:40:06;230.13;;;219.73;;
52620;SDS011;38515;53.160;6.990;2023-07-22T06:42:32;204.40;;;194.80;;
52620;SDS011;38515;53.160;6.990;2023-07-22T06:44:58;405.70;;;385.05;;
52620;SDS011;38515;53.160;6.990;2023-07-22T06:47:24;227.82;;;217.02;;
52620;SDS011;38515;53.160;6.990;2023-07-22T06:49:50;445.25;;;422.30;;
52620;SDS011;38515;53.160;6.990;2023-07-22T06:52:16;404.98;;;384.95;;
52620;SDS011;38515;53.160;6.990;2023-07-22T06:54:42;508.50;;;479.05;;
52620;SDS011;38515;53.160;6.990;2023-07-22T06:57:08;451.77;;;427.48;;
52620;SDS011;38515;53.160;6.990;2023-07-22T06:59:34;399.70;;;377.73;;
52620;SDS011;38515;53.160;6.990;2023-07-22T07:02:00;408.55;;;385.58;;
52620;SDS011;38515;53.160;6.990;2023-07-22T07:04:26;446.40;;;424.75;;
52620;SDS011;38515;53.160;6.990;2023-07-22T07:06:52;456.92;;;435.75;;
52620;SDS011;38515;53.160;6.990;2023-07-22T07:09:19;503.17;;;477.80;;
52620;SDS011;38515;53.160;6.990;2023-07-22T07:11:45;422.52;;;401.17;;
52620;SDS011;38515;53.160;6.990;2023-07-22T07:14:10;298.80;;;284.92;;
52620;SDS011;38515;53.160;6.990;2023-07-22T07:16:37;374.67;;;357.25;;
52620;SDS011;38515;53.160;6.990;2023-07-22T07:19:03;295.27;;;280.65;;
52620;SDS011;38515;53.160;6.990;2023-07-22T07:21:28;437.63;;;414.50;;
52620;SDS011;38515;53.160;6.990;2023-07-22T07:23:55;327.83;;;311.85;;
52620;SDS011;38515;53.160;6.990;2023-07-22T07:26:21;309.33;;;294.35;;
52620;SDS011;38515;53.160;6.990;2023-07-22T07:28:47;388.42;;;368.52;;
52620;SDS011;38515;53.160;6.990;2023-07-22T07:31:15;425.35;;;403.67;;
52620;SDS011;38515;53.160;6.990;2023-07-22T07:33:40;428.55;;;407.10;;
52620;SDS011;38515;53.160;6.990;2023-07-22T07:36:06;376.20;;;355.48;;
52620;SDS011;38515;53.160;6.990;2023-07-22T07:38:32;440.80;;;417.20;;
52620;SDS011;38515;53.160;6.990;2023-07-22T07:40:59;348.90;;;330.83;;
52620;SDS011;38515;53.160;6.990;2023-07-22T07:43:26;396.52;;;377.27;;
52620;SDS011;38515;53.160;6.990;2023-07-22T07:48:42;361.98;;;343.65;;
52620;SDS011;38515;53.160;6.990;2023-07-22T07:51:10;309.00;;;293.88;;
52620;SDS011;38515;53.160;6.990;2023-07-22T07:53:37;321.65;;;306.60;;
52620;SDS011;38515;53.160;6.990;2023-07-22T07:56:03;327.83;;;311.23;;
52620;SDS011;38515;53.160;6.990;2023-07-22T07:58:29;384.20;;;364.75;;
52620;SDS011;38515;53.160;6.990;2023-07-22T08:00:54;283.30;;;270.15;;
52620;SDS011;38515;53.160;6.990;2023-07-22T08:03:20;260.50;;;248.43;;
52620;SDS011;38515;53.160;6.990;2023-07-22T08:05:46;334.77;;;318.42;;
52620;SDS011;38515;53.160;6.990;2023-07-22T08:08:12;322.05;;;305.85;;
52620;SDS011;38515;53.160;6.990;2023-07-22T08:10:38;313.48;;;298.38;;
52620;SDS011;38515;53.160;6.990;2023-07-22T08:13:04;365.80;;;348.13;;
52620;SDS011;38515;53.160;6.990;2023-07-22T08:15:30;435.63;;;412.45;;
52620;SDS011;38515;53.160;6.990;2023-07-22T08:17:55;233.55;;;223.02;;
52620;SDS011;38515;53.160;6.990;2023-07-22T08:20:22;318.92;;;303.52;;
52620;SDS011;38515;53.160;6.990;2023-07-22T08:22:48;211.05;;;201.13;;
52620;SDS011;38515;53.160;6.990;2023-07-22T08:25:13;398.95;;;378.67;;
52620;SDS011;38515;53.160;6.990;2023-07-22T08:27:39;376.30;;;357.70;;
52620;SDS011;38515;53.160;6.990;2023-07-22T08:30:05;376.42;;;356.08;;
52620;SDS011;38515;53.160;6.990;2023-07-22T08:32:32;386.48;;;367.55;;
52620;SDS011;38515;53.160;6.990;2023-07-22T08:34:57;355.45;;;338.27;;
52620;SDS011;38515;53.160;6.990;2023-07-22T08:37:23;494.15;;;466.75;;
52620;SDS011;38515;53.160;6.990;2023-07-22T08:39:49;504.58;;;476.65;;
52620;SDS011;38515;53.160;6.990;2023-07-22T08:42:16;403.73;;;384.10;;
52620;SDS011;38515;53.160;6.990;2023-07-22T08:44:44;569.55;;;533.83;;
52620;SDS011;38515;53.160;6.990;2023-07-22T08:47:14;478.88;;;451.58;;
52620;SDS011;38515;53.160;6.990;2023-07-22T08:49:45;436.42;;;414.30;;
52620;SDS011;38515;53.160;6.990;2023-07-22T08:52:15;408.20;;;387.35;;
52620;SDS011;38515;53.160;6.990;2023-07-22T08:54:43;400.38;;;378.27;;
52620;SDS011;38515;53.160;6.990;2023-07-22T08:57:10;402.52;;;382.10;;
52620;SDS011;38515;53.160;6.990;2023-07-22T08:59:37;344.02;;;325.15;;
52620;SDS011;38515;53.160;6.990;2023-07-22T09:02:04;415.92;;;394.52;;
52620;SDS011;38515;53.160;6.990;2023-07-22T09:04:33;384.55;;;364.45;;
52620;SDS011;38515;53.160;6.990;2023-07-22T09:06:59;558.38;;;525.30;;
52620;SDS011;38515;53.160;6.990;2023-07-22T09:09:25;561.75;;;526.22;;
52620;SDS011;38515;53.160;6.990;2023-07-22T09:11:51;355.02;;;335.25;;
52620;SDS011;38515;53.160;6.990;2023-07-22T09:14:18;492.98;;;465.00;;
52620;SDS011;38515;53.160;6.990;2023-07-22T09:16:45;565.28;;;534.42;;
52620;SDS011;38515;53.160;6.990;2023-07-22T09:19:12;493.63;;;465.98;;
52620;SDS011;38515;53.160;6.990;2023-07-22T09:21:38;615.50;;;577.60;;
52620;SDS011;38515;53.160;6.990;2023-07-22T09:24:26;612.97;;;575.22;;
52620;SDS011;38515;53.160;6.990;2023-07-22T09:26:53;577.65;;;544.20;;
52620;SDS011;38515;53.160;6.990;2023-07-22T09:29:35;346.35;;;330.45;;
52620;SDS011;38515;53.160;6.990;2023-07-22T09:32:04;571.95;;;540.00;;
52620;SDS011;38515;53.160;6.990;2023-07-22T09:34:30;520.85;;;492.77;;
52620;SDS011;38515;53.160;6.990;2023-07-22T09:36:57;457.45;;;434.27;;
52620;SDS011;38515;53.160;6.990;2023-07-22T09:39:28;235.23;;;224.40;;
52620;SDS011;38515;53.160;6.990;2023-07-22T09:41:56;437.48;;;415.52;;
52620;SDS011;38515;53.160;6.990;2023-07-22T09:44:28;384.83;;;365.90;;
52620;SDS011;38515;53.160;6.990;2023-07-22T09:46:55;297.75;;;284.98;;
52620;SDS011;38515;53.160;6.990;2023-07-22T09:49:20;232.20;;;221.48;;
52620;SDS011;38515;53.160;6.990;2023-07-22T09:51:46;238.77;;;228.48;;
52620;SDS011;38515;53.160;6.990;2023-07-22T09:54:12;221.48;;;210.85;;
52620;SDS011;38515;53.160;6.990;2023-07-22T09:56:45;329.48;;;314.42;;
52620;SDS011;38515;53.160;6.990;2023-07-22T09:59:12;451.38;;;427.67;;
52620;SDS011;38515;53.160;6.990;2023-07-22T10:01:39;495.08;;;470.52;;
52620;SDS011;38515;53.160;6.990;2023-07-22T10:04:06;457.92;;;434.77;;
52620;SDS011;38515;53.160;6.990;2023-07-22T10:06:33;319.10;;;304.70;;
52620;SDS011;38515;53.160;6.990;2023-07-22T10:09:03;344.30;;;327.63;;
52620;SDS011;38515;53.160;6.990;2023-07-22T10:11:33;511.27;;;482.88;;
52620;SDS011;38515;53.160;6.990;2023-07-22T10:14:03;466.08;;;441.40;;
52620;SDS011;38515;53.160;6.990;2023-07-22T10:16:30;434.65;;;410.67;;
52620;SDS011;38515;53.160;6.990;2023-07-22T10:18:57;489.00;;;462.63;;
52620;SDS011;38515;53.160;6.990;2023-07-22T10:21:24;409.20;;;388.02;;
52620;SDS011;38515;53.160;6.990;2023-07-22T10:23:51;517.20;;;489.08;;
52620;SDS011;38515;53.160;6.990;2023-07-22T10:26:18;491.05;;;463.67;;
52620;SDS011;38515;53.160;6.990;2023-07-22T10:28:45;416.17;;;394.58;;
52620;SDS011;38515;53.160;6.990;2023-07-22T10:31:12;470.45;;;446.15;;
52620;SDS011;38515;53.160;6.990;2023-07-22T10:33:39;471.45;;;446.13;;
52620;SDS011;38515;53.160;6.990;2023-07-22T10:38:32;492.02;;;464.92;;
52620;SDS011;38515;53.160;6.990;2023-07-22T10:41:11;501.20;;;474.90;;
52620;SDS011;38515;53.160;6.990;2023-07-22T10:43:56;463.48;;;437.90;;
52620;SDS011;38515;53.160;6.990;2023-07-22T10:49:22;584.65;;;550.70;;
52620;SDS011;38515;53.160;6.990;2023-07-22T10:51:49;531.05;;;500.90;;
52620;SDS011;38515;53.160;6.990;2023-07-22T10:54:33;506.45;;;478.30;;
52620;SDS011;38515;53.160;6.990;2023-07-22T10:57:04;540.13;;;509.10;;
52620;SDS011;38515;53.160;6.990;2023-07-22T10:59:49;376.48;;;359.45;;
52620;SDS011;38515;53.160;6.990;2023-07-22T11:02:23;655.25;;;617.20;;
52620;SDS011;38515;53.160;6.990;2023-07-22T11:04:57;565.20;;;531.00;;
52620;SDS011;38515;53.160;6.990;2023-07-22T11:07:30;618.13;;;582.72;;
52620;SDS011;38515;53.160;6.990;2023-07-22T11:10:12;387.52;;;367.23;;
52620;SDS011;38515;53.160;6.990;2023-07-22T11:12:43;469.60;;;445.58;;
52620;SDS011;38515;53.160;6.990;2023-07-22T11:15:14;456.23;;;430.38;;
52620;SDS011;38515;53.160;6.990;2023-07-22T11:17:42;544.35;;;514.15;;
52620;SDS011;38515;53.160;6.990;2023-07-22T11:20:08;448.13;;;424.83;;
52620;SDS011;38515;53.160;6.990;2023-07-22T11:22:34;334.45;;;316.75;;
52620;SDS011;38515;53.160;6.990;2023-07-22T11:25:04;355.23;;;337.40;;
52620;SDS011;38515;53.160;6.990;2023-07-22T11:27:31;217.20;;;206.80;;
52620;SDS011;38515;53.160;6.990;2023-07-22T11:29:57;230.88;;;220.32;;
52620;SDS011;38515;53.160;6.990;2023-07-22T11:32:24;239.65;;;229.18;;
52620;SDS011;38515;53.160;6.990;2023-07-22T11:34:53;265.30;;;252.23;;
52620;SDS011;38515;53.160;6.990;2023-07-22T11:37:22;342.70;;;324.70;;
52620;SDS011;38515;53.160;6.990;2023-07-22T11:39:47;236.10;;;225.35;;
52620;SDS011;38515;53.160;6.990;2023-07-22T11:42:13;227.48;;;216.30;;
52620;SDS011;38515;53.160;6.990;2023-07-22T11:44:40;153.30;;;146.52;;
52620;SDS011;38515;53.160;6.990;2023-07-22T11:47:06;181.27;;;172.88;;
52620;SDS011;38515;53.160;6.990;2023-07-22T11:49:37;166.05;;;158.48;;
52620;SDS011;38515;53.160;6.990;2023-07-22T11:52:05;110.55;;;105.43;;
52620;SDS011;38515;53.160;6.990;2023-07-22T11:54:38;98.95;;;94.15;;
52620;SDS011;38515;53.160;6.990;2023-07-22T11:57:15;110.47;;;105.43;;
52620;SDS011;38515;53.160;6.990;2023-07-22T11:59:46;111.72;;;106.55;;
52620;SDS011;38515;53.160;6.990;2023-07-22T12:02:16;146.95;;;140.25;;
52620;SDS011;38515;53.160;6.990;2023-07-22T12:04:52;197.18;;;188.27;;
52620;SDS011;38515;53.160;6.990;2023-07-22T12:07:26;117.15;;;112.03;;
52620;SDS011;38515;53.160;6.990;2023-07-22T12:09:54;98.47;;;94.05;;
52620;SDS011;38515;53.160;6.990;2023-07-22T12:12:30;138.73;;;132.68;;
52620;SDS011;38515;53.160;6.990;2023-07-22T12:15:04;99.53;;;94.68;;
52620;SDS011;38515;53.160;6.990;2023-07-22T12:20:11;145.57;;;139.27;;
52620;SDS011;38515;53.160;6.990;2023-07-22T12:22:37;152.93;;;146.38;;
52620;SDS011;38515;53.160;6.990;2023-07-22T12:25:03;168.60;;;161.38;;
52620;SDS011;38515;53.160;6.990;2023-07-22T12:27:29;106.53;;;101.65;;
52620;SDS011;38515;53.160;6.990;2023-07-22T12:29:55;93.45;;;88.75;;
52620;SDS011;38515;53.160;6.990;2023-07-22T12:32:23;157.18;;;150.55;;
52620;SDS011;38515;53.160;6.990;2023-07-22T12:34:49;197.27;;;188.77;;
52620;SDS011;38515;53.160;6.990;2023-07-22T12:37:18;183.27;;;174.98;;
52620;SDS011;38515;53.160;6.990;2023-07-22T12:39:44;226.68;;;216.60;;
52620;SDS011;38515;53.160;6.990;2023-07-22T12:42:10;293.95;;;280.40;;
52620;SDS011;38515;53.160;6.990;2023-07-22T12:44:36;255.98;;;244.50;;
52620;SDS011;38515;53.160;6.990;2023-07-22T12:47:02;251.30;;;239.80;;
52620;SDS011;38515;53.160;6.990;2023-07-22T12:49:28;263.63;;;251.88;;
52620;SDS011;38515;53.160;6.990;2023-07-22T12:51:54;269.40;;;256.73;;
52620;SDS011;38515;53.160;6.990;2023-07-22T12:54:20;176.38;;;168.07;;
52620;SDS011;38515;53.160;6.990;2023-07-22T12:56:46;190.43;;;181.50;;
52620;SDS011;38515;53.160;6.990;2023-07-22T12:59:12;202.68;;;193.63;;
52620;SDS011;38515;53.160;6.990;2023-07-22T13:01:38;162.57;;;155.25;;
52620;SDS011;38515;53.160;6.990;2023-07-22T13:04:09;176.32;;;168.63;;
52620;SDS011;38515;53.160;6.990;2023-07-22T13:06:35;175.25;;;167.55;;
52620;SDS011;38515;53.160;6.990;2023-07-22T13:09:03;176.07;;;168.25;;
52620;SDS011;38515;53.160;6.990;2023-07-22T13:11:29;184.15;;;176.18;;
52620;SDS011;38515;53.160;6.990;2023-07-22T13:13:55;203.52;;;194.73;;
52620;SDS011;38515;53.160;6.990;2023-07-22T13:16:24;120.25;;;114.75;;
52620;SDS011;38515;53.160;6.990;2023-07-22T13:18:50;179.73;;;171.80;;
52620;SDS011;38515;53.160;6.990;2023-07-22T13:21:25;150.93;;;144.38;;
52620;SDS011;38515;53.160;6.990;2023-07-22T13:23:52;198.70;;;189.45;;
52620;SDS011;38515;53.160;6.990;2023-07-22T13:26:18;118.97;;;113.60;;
52620;SDS011;38515;53.160;6.990;2023-07-22T13:28:50;182.25;;;173.88;;
52620;SDS011;38515;53.160;6.990;2023-07-22T13:31:17;222.35;;;212.43;;
52620;SDS011;38515;53.160;6.990;2023-07-22T13:33:44;205.77;;;196.00;;
52620;SDS011;38515;53.160;6.990;2023-07-22T13:36:12;212.07;;;202.93;;
52620;SDS011;38515;53.160;6.990;2023-07-22T13:38:46;235.38;;;224.80;;
52620;SDS011;38515;53.160;6.990;2023-07-22T13:41:12;197.68;;;188.88;;
52620;SDS011;38515;53.160;6.990;2023-07-22T13:43:38;210.98;;;201.57;;
52620;SDS011;38515;53.160;6.990;2023-07-22T13:46:04;166.45;;;158.88;;
52620;SDS011;38515;53.160;6.990;2023-07-22T13:48:32;155.73;;;148.63;;
52620;SDS011;38515;53.160;6.990;2023-07-22T13:50:58;211.05;;;201.70;;
52620;SDS011;38515;53.160;6.990;2023-07-22T13:53:24;202.13;;;193.23;;
52620;SDS011;38515;53.160;6.990;2023-07-22T13:55:50;202.48;;;193.50;;
52620;SDS011;38515;53.160;6.990;2023-07-22T13:58:16;190.43;;;182.13;;
52620;SDS011;38515;53.160;6.990;2023-07-22T14:00:42;235.90;;;225.43;;
52620;SDS011;38515;53.160;6.990;2023-07-22T14:03:08;236.02;;;225.93;;
52620;SDS011;38515;53.160;6.990;2023-07-22T14:05:34;226.32;;;216.45;;
52620;SDS011;38515;53.160;6.990;2023-07-22T14:08:00;210.90;;;201.63;;
52620;SDS011;38515;53.160;6.990;2023-07-22T14:10:26;213.43;;;204.43;;